Time;durP1;ratioP1;P1;durP2;ratioP2;P2;SDS_P1;SDS_P2;PMS_P1;PMS_P2;Temp;Humidity;BMP_temperature;BMP_pressure;BME280_temperature;BME280_humidity;BME280_pressure;Samples;Min_cycle;Max_cycle;Signal;HPM_P1;HPM_P2
2022/08/03 00:01:02;;;;;;;8.75;2.85;;;;;;;24.78;59.96;101014.53;5073027;28;20044;-68
2022/08/03 00:03:30;;;;;;;4.90;2.53;;;;;;;24.76;59.98;101019.78;5093382;28;20051;-68
2022/08/03 00:05:57;;;;;;;10.77;3.20;;;;;;;24.66;60.49;101027.00;5077254;28;20053;-68
2022/08/03 00:08:31;;;;;;;15.57;3.95;;;;;;;24.46;60.84;101023.75;5096509;28;20056;-69
2022/08/03 00:11:05;;;;;;;10.30;3.53;;;;;;;24.65;59.91;101021.75;5087668;28;20048;-69
2022/08/03 00:13:33;;;;;;;6.95;2.58;;;;;;;24.66;59.83;101029.81;5086763;28;20051;-69
2022/08/03 00:16:00;;;;;;;11.73;2.97;;;;;;;24.76;59.42;101029.03;5074146;28;20527;-68
2022/08/03 00:18:27;;;;;;;8.77;2.90;;;;;;;24.93;58.85;101033.84;5092058;28;20059;-70
2022/08/03 00:25:05;;;;;;;7.47;2.97;;;;;;;24.81;59.62;101031.44;5065195;28;20044;-72
2022/08/03 00:27:32;;;;;;;14.25;3.92;;;;;;;24.84;59.60;101030.66;5084919;28;20049;-69
2022/08/03 00:30:02;;;;;;;11.90;3.20;;;;;;;24.89;59.71;101030.25;5075093;28;20053;-71
2022/08/03 00:32:29;;;;;;;8.40;2.90;;;;;;;24.98;59.53;101027.03;5086614;28;20044;-70
2022/08/03 00:34:56;;;;;;;7.30;3.17;;;;;;;24.97;59.18;101029.03;5084974;28;20064;-70
2022/08/03 00:37:26;;;;;;;5.97;2.30;;;;;;;24.73;59.63;101029.84;5073053;28;20052;-68
2022/08/03 00:40:11;;;;;;;9.18;3.05;;;;;;;24.73;59.40;101027.03;5067199;28;20056;-70
2022/08/03 00:42:50;;;;;;;5.43;2.08;;;;;;;24.51;59.21;101031.00;5080806;28;20389;-67
2022/08/03 00:45:23;;;;;;;5.45;2.35;;;;;;;24.55;59.11;101031.78;5088461;28;20056;-69
2022/08/03 00:47:50;;;;;;;7.43;2.33;;;;;;;24.59;58.97;101028.97;5089521;28;20154;-69
2022/08/03 00:50:21;;;;;;;7.38;2.05;;;;;;;24.60;59.00;101024.97;5078303;28;20053;-69
2022/08/03 00:52:57;;;;;;;11.30;2.45;;;;;;;24.52;59.52;101030.59;5060874;28;20059;-70
2022/08/03 00:55:24;;;;;;;9.98;2.55;;;;;;;24.69;59.09;101019.75;5083844;28;20526;-70
2022/08/03 00:57:52;;;;;;;8.40;2.60;;;;;;;24.52;59.22;101018.53;5084977;28;20527;-71
2022/08/03 01:00:21;;;;;;;9.55;3.90;;;;;;;24.56;59.56;101012.88;5079393;28;20495;-70
2022/08/03 01:02:49;;;;;;;11.23;4.88;;;;;;;24.63;59.35;101010.91;5064149;28;20064;-70
2022/08/03 01:05:17;;;;;;;13.35;5.45;;;;;;;24.34;60.03;101009.22;5070898;28;20511;-71
2022/08/03 01:12:41;;;;;;;11.02;3.63;;;;;;;24.32;59.80;101012.44;5071184;28;20040;-69
2022/08/03 01:15:14;;;;;;;8.82;3.22;;;;;;;24.53;59.45;101004.03;5073744;28;20075;-69
2022/08/03 01:17:56;;;;;;;10.95;2.80;;;;;;;24.55;58.20;101005.66;5080474;28;20051;-69
2022/08/03 01:20:26;;;;;;;8.00;2.20;;;;;;;24.57;58.15;100997.59;5070862;28;20048;-68
2022/08/03 01:23:13;;;;;;;6.88;2.20;;;;;;;24.39;58.56;100995.56;5079632;28;20404;-68
2022/08/03 01:26:08;;;;;;;7.30;1.90;;;;;;;24.37;58.15;101000.78;5054473;28;20052;-68
2022/08/03 01:28:54;;;;;;;5.47;1.80;;;;;;;24.37;58.36;100992.34;5063741;28;20064;-68
2022/08/03 01:31:26;;;;;;;4.35;1.60;;;;;;;24.37;57.85;100995.16;5071665;28;20045;-68
2022/08/03 01:33:59;;;;;;;7.78;1.83;;;;;;;24.28;58.23;100991.13;5073339;28;20056;-68
2022/08/03 01:36:33;;;;;;;6.75;1.60;;;;;;;24.32;57.65;100989.91;5080803;28;20052;-69
2022/08/03 01:39:02;;;;;;;7.07;1.85;;;;;;;24.08;58.62;100992.69;5070713;28;20055;-68
2022/08/03 01:41:32;;;;;;;5.68;1.75;;;;;;;24.18;58.19;100987.06;5068004;28;20041;-68
2022/08/03 01:44:03;;;;;;;10.45;2.03;;;;;;;24.31;58.04;100984.69;5054834;28;20063;-69
2022/08/03 01:46:52;;;;;;;7.28;1.70;;;;;;;24.03;58.51;100988.25;5058233;28;20052;-69
2022/08/03 01:49:20;;;;;;;5.85;1.50;;;;;;;23.97;58.81;100986.97;5061720;28;20045;-69
2022/08/03 01:51:47;;;;;;;7.75;1.55;;;;;;;23.86;58.74;100986.16;5071737;28;20048;-68
2022/08/03 01:54:35;;;;;;;8.60;1.92;;;;;;;23.82;59.01;100974.09;5060380;28;20048;-69
2022/08/03 01:57:03;;;;;;;4.32;1.75;;;;;;;23.91;59.05;100982.97;5032274;28;20060;-68
2022/08/03 01:59:34;;;;;;;4.97;1.60;;;;;;;23.79;58.56;100985.31;5081927;28;20056;-68
2022/08/03 02:02:02;;;;;;;11.52;2.15;;;;;;;23.86;58.60;100983.34;5079408;28;20048;-68
2022/08/03 02:04:51;;;;;;;7.25;1.52;;;;;;;23.80;58.84;100986.97;5088663;28;20051;-68
2022/08/03 02:07:19;;;;;;;5.72;1.48;;;;;;;23.88;58.45;100988.59;5072674;28;20521;-68
2022/08/03 02:09:50;;;;;;;7.57;1.40;;;;;;;23.86;58.31;100983.34;5073658;28;20052;-68
2022/08/03 02:12:17;;;;;;;9.15;1.30;;;;;;;23.88;58.10;100974.50;5052702;28;20084;-68
2022/08/03 02:14:46;;;;;;;4.60;1.27;;;;;;;23.89;58.46;100974.09;5076473;28;20052;-68
2022/08/03 02:17:14;;;;;;;5.60;1.23;;;;;;;23.90;58.27;100977.72;5074897;28;20387;-68
2022/08/03 02:19:42;;;;;;;5.93;1.60;;;;;;;23.95;58.18;100974.53;5071377;28;20055;-68
2022/08/03 02:22:11;;;;;;;7.07;1.50;;;;;;;23.87;58.27;100965.25;5072423;28;20466;-67
2022/08/03 02:24:39;;;;;;;4.95;1.60;;;;;;;23.93;57.89;100968.50;5080155;28;20052;-68
2022/08/03 02:27:14;;;;;;;7.53;1.95;;;;;;;23.92;57.85;100967.69;5066680;28;20059;-68
2022/08/03 02:29:46;;;;;;;5.03;1.67;;;;;;;24.27;57.12;100964.97;5083757;28;20048;-68
2022/08/03 02:32:16;;;;;;;5.15;1.88;;;;;;;24.11;57.23;100955.31;5071281;28;20051;-68
2022/08/03 02:34:46;;;;;;;8.25;2.35;;;;;;;24.10;57.13;100965.75;5059746;28;20056;-68
2022/08/03 02:37:14;;;;;;;11.00;2.60;;;;;;;24.20;57.21;100961.38;5075738;28;20063;-68
2022/08/03 02:39:42;;;;;;;10.73;3.30;;;;;;;24.12;56.90;100965.34;5091140;28;20130;-68
2022/08/03 02:42:11;;;;;;;8.90;2.50;;;;;;;24.13;56.92;100964.16;5054826;28;20059;-68
2022/08/03 02:44:40;;;;;;;8.52;2.08;;;;;;;24.00;57.27;100962.91;5070304;28;20056;-68
2022/08/03 02:47:09;;;;;;;8.68;2.03;;;;;;;24.07;57.27;100966.56;5071770;28;20048;-68
2022/08/03 02:49:37;;;;;;;5.77;1.30;;;;;;;24.00;57.67;100966.53;5060600;28;20045;-68
2022/08/03 02:52:22;;;;;;;5.38;1.80;;;;;;;23.98;57.78;100963.28;5069814;28;20056;-68
2022/08/03 02:54:58;;;;;;;7.38;1.67;;;;;;;23.85;58.23;100959.22;5053119;28;20056;-69
2022/08/03 02:57:27;;;;;;;9.65;1.92;;;;;;;24.02;58.13;100958.50;5074468;28;20052;-68
2022/08/03 02:59:55;;;;;;;4.25;1.35;;;;;;;24.01;58.27;100951.25;5084832;28;20086;-69
2022/08/03 03:02:23;;;;;;;8.63;1.70;;;;;;;24.18;57.71;100941.25;5052725;28;20052;-68
2022/08/03 03:04:52;;;;;;;14.13;1.92;;;;;;;24.13;57.48;100948.06;5054276;28;20067;-68
2022/08/03 03:07:40;;;;;;;8.48;1.85;;;;;;;24.14;57.03;100952.50;5081623;28;20041;-68
2022/08/03 03:10:22;;;;;;;5.70;1.60;;;;;;;23.82;57.70;100954.38;5075513;28;20522;-68
2022/08/03 03:12:51;;;;;;;5.03;1.50;;;;;;;23.95;57.75;100949.22;5064748;28;20053;-68
2022/08/03 03:15:19;;;;;;;3.55;1.13;;;;;;;23.92;57.23;100945.16;5070983;28;20060;-68
2022/08/03 03:17:48;;;;;;;4.30;1.40;;;;;;;23.87;57.63;100947.59;5076751;28;20381;-69
2022/08/03 03:20:16;;;;;;;7.65;1.48;;;;;;;23.75;57.62;100940.31;5075949;28;20075;-68
2022/08/03 03:23:00;;;;;;;5.47;1.75;;;;;;;23.73;57.86;100936.28;5095304;28;20048;-68
2022/08/03 03:25:31;;;;;;;5.82;1.63;;;;;;;23.80;57.42;100939.91;5078568;28;20045;-68
2022/08/03 03:28:00;;;;;;;6.78;1.52;;;;;;;23.86;57.70;100949.59;5060549;28;20550;-68
2022/08/03 03:30:28;;;;;;;5.10;1.70;;;;;;;23.77;57.44;100945.53;5063971;28;20051;-68
2022/08/03 03:32:57;;;;;;;5.70;1.60;;;;;;;23.92;57.09;100945.16;5089238;28;20063;-69
2022/08/03 03:35:26;;;;;;;6.30;1.38;;;;;;;23.83;57.49;100941.13;5079900;28;20353;-68
2022/08/03 03:37:54;;;;;;;5.40;1.42;;;;;;;23.70;57.80;100937.88;5084255;28;20056;-67
2022/08/03 03:40:21;;;;;;;7.65;1.52;;;;;;;23.82;57.75;100939.50;5087556;28;20071;-68
2022/08/03 03:42:49;;;;;;;6.15;1.40;;;;;;;24.06;57.34;100936.00;5082016;28;20050;-68
2022/08/03 03:45:16;;;;;;;5.35;1.63;;;;;;;23.85;57.68;100935.94;5080713;28;20423;-68
2022/08/03 03:47:44;;;;;;;5.63;1.33;;;;;;;23.95;57.45;100933.13;5067099;28;20048;-69
2022/08/03 03:50:11;;;;;;;7.70;1.75;;;;;;;24.24;56.47;100936.81;5054605;28;20063;-68
2022/08/03 03:52:39;;;;;;;9.90;1.80;;;;;;;24.26;56.29;100938.03;5096953;28;20071;-69
2022/08/03 03:55:06;;;;;;;7.75;1.67;;;;;;;24.33;56.10;100934.41;5050242;28;20056;-68
2022/08/03 03:57:34;;;;;;;9.20;1.80;;;;;;;24.34;56.14;100936.84;5072635;28;20048;-69
2022/08/03 04:00:02;;;;;;;6.63;1.90;;;;;;;24.24;56.64;100937.63;5087417;28;20059;-68
2022/08/03 04:02:30;;;;;;;6.03;1.50;;;;;;;24.35;56.42;100934.81;5088920;28;20047;-68
2022/08/03 04:11:09;;;;;;;5.07;1.60;;;;;;;24.31;56.58;100937.63;5075870;28;20052;-69
2022/08/03 04:13:49;;;;;;;7.80;1.95;;;;;;;24.35;56.26;100943.28;5074627;28;20057;-68
2022/08/03 04:16:21;;;;;;;10.15;1.70;;;;;;;24.52;56.23;100945.28;5063130;28;20734;-68
2022/08/03 04:18:54;;;;;;;7.35;1.80;;;;;;;24.65;55.39;100940.06;5075968;28;20055;-68
2022/08/03 04:21:23;;;;;;;6.13;1.85;;;;;;;24.64;55.43;100942.06;5092287;28;20056;-68
2022/08/03 04:23:54;;;;;;;7.72;1.80;;;;;;;24.52;56.08;100946.09;5081634;28;20075;-69
2022/08/03 04:26:22;;;;;;;5.25;1.70;;;;;;;24.43;56.14;100937.25;5084923;28;20513;-69
2022/08/03 04:28:50;;;;;;;8.27;1.90;;;;;;;24.53;55.78;100944.06;5058933;28;20067;-69
2022/08/03 04:31:21;;;;;;;6.80;1.90;;;;;;;24.48;55.90;100931.19;5035445;28;20049;-69
2022/08/03 04:33:50;;;;;;;8.32;1.70;;;;;;;24.26;56.68;100940.03;5073712;28;20040;-69
2022/08/03 04:36:21;;;;;;;9.33;1.97;;;;;;;24.23;57.02;100927.56;5062402;28;20443;-69
2022/08/03 04:38:58;;;;;;;8.63;2.00;;;;;;;24.23;57.14;100935.22;5072602;28;20067;-69
2022/08/03 04:41:27;;;;;;;5.95;1.88;;;;;;;24.04;57.62;100936.38;5072982;28;20063;-69
2022/08/03 04:43:57;;;;;;;8.50;1.98;;;;;;;24.12;57.25;100935.22;5100095;28;20044;-69
2022/08/03 04:46:33;;;;;;;7.40;2.20;;;;;;;24.16;57.53;100935.22;5073148;28;20060;-69
2022/08/03 04:49:01;;;;;;;7.55;2.03;;;;;;;24.16;57.24;100933.22;5075178;28;20083;-68
2022/08/03 04:51:29;;;;;;;7.60;1.80;;;;;;;24.29;57.29;100937.22;5104374;28;20047;-69
2022/08/03 04:53:56;;;;;;;8.38;2.10;;;;;;;24.41;56.70;100933.22;5081657;28;20055;-69
2022/08/03 04:56:23;;;;;;;4.90;1.70;;;;;;;24.54;56.27;100934.44;5078209;28;20064;-68
2022/08/03 04:58:50;;;;;;;5.43;2.00;;;;;;;24.40;56.82;100937.25;5086103;28;20041;-68
2022/08/03 05:01:19;;;;;;;6.50;1.60;;;;;;;24.45;56.56;100939.66;5087350;28;20070;-69
2022/08/03 05:03:46;;;;;;;6.47;2.05;;;;;;;24.71;55.66;100941.28;5076073;28;20064;-69
2022/08/03 05:06:14;;;;;;;7.68;1.70;;;;;;;24.74;55.70;100941.28;5074280;28;20052;-68
2022/08/03 05:08:42;;;;;;;8.05;2.00;;;;;;;24.57;55.72;100936.44;5079280;28;20052;-69
2022/08/03 05:11:16;;;;;;;8.50;2.33;;;;;;;24.57;55.92;100938.44;5069512;28;20444;-68
2022/08/03 05:13:45;;;;;;;7.18;2.13;;;;;;;24.51;55.91;100941.66;5068214;28;20481;-69
2022/08/03 05:16:13;;;;;;;4.95;1.63;;;;;;;24.57;56.08;100941.25;5072112;28;20048;-69
2022/08/03 05:18:41;;;;;;;9.45;2.20;;;;;;;24.62;55.42;100943.69;5072979;28;20052;-69
2022/08/03 05:21:09;;;;;;;8.18;1.88;;;;;;;24.44;56.38;100947.28;5056899;28;20416;-69
2022/08/03 05:23:37;;;;;;;8.13;2.13;;;;;;;24.53;56.12;100949.69;5072225;28;20056;-69
2022/08/03 05:26:04;;;;;;;5.85;1.73;;;;;;;24.53;56.12;100946.88;5073370;28;20048;-69
2022/08/03 05:28:31;;;;;;;7.15;1.90;;;;;;;24.48;55.96;100950.09;5074927;28;20048;-69
2022/08/03 05:30:59;;;;;;;7.78;1.70;;;;;;;24.47;56.13;100954.16;5073151;28;20051;-69
2022/08/03 05:33:26;;;;;;;9.10;1.90;;;;;;;24.48;56.39;100944.47;5073702;28;20488;-69
2022/08/03 05:35:54;;;;;;;8.43;1.92;;;;;;;24.50;56.23;100947.69;5081221;28;20060;-69
2022/08/03 05:38:31;;;;;;;7.00;2.38;;;;;;;24.71;55.81;100944.09;5071752;28;20044;-69
2022/08/03 05:41:02;;;;;;;10.07;1.80;;;;;;;24.65;56.05;100949.31;5064140;28;20063;-69
2022/08/03 05:43:53;;;;;;;9.07;2.30;;;;;;;24.75;56.08;100945.72;5080026;28;20051;-69
2022/08/03 05:46:22;;;;;;;11.20;2.25;;;;;;;24.79;55.72;100949.34;5063656;28;20059;-68
2022/08/03 05:48:49;;;;;;;7.82;2.28;;;;;;;24.93;55.48;100949.31;5068136;28;20068;-70
2022/08/03 05:51:17;;;;;;;8.40;2.45;;;;;;;24.95;55.21;100946.09;5050647;28;20067;-69
2022/08/03 05:53:45;;;;;;;6.97;2.55;;;;;;;25.14;55.08;100952.09;5094635;28;20047;-69
2022/08/03 05:56:12;;;;;;;8.52;2.47;;;;;;;25.14;54.57;100951.31;5084931;28;20064;-69
2022/08/03 05:58:46;;;;;;;9.82;2.25;;;;;;;24.85;55.25;100949.72;5066437;28;20045;-69
2022/08/03 06:01:15;;;;;;;7.20;2.38;;;;;;;25.05;55.00;100954.53;5080692;28;20052;-68
2022/08/03 06:03:47;;;;;;;7.78;2.30;;;;;;;25.23;54.39;100957.28;5053266;28;20051;-69
2022/08/03 06:06:15;;;;;;;12.43;2.40;;;;;;;25.38;54.08;100968.19;5055386;28;20044;-68
2022/08/03 06:08:43;;;;;;;11.18;2.80;;;;;;;25.28;54.67;100963.34;5054274;28;20044;-68
2022/08/03 06:11:11;;;;;;;8.07;2.55;;;;;;;25.37;54.08;100962.94;5073238;28;20064;-68
2022/08/03 06:13:39;;;;;;;11.65;2.70;;;;;;;25.31;54.15;100968.19;5077824;28;20486;-69
2022/08/03 06:16:06;;;;;;;8.27;2.30;;;;;;;25.38;54.31;100965.38;5073332;28;20060;-68
2022/08/03 06:18:34;;;;;;;11.98;2.92;;;;;;;25.63;53.26;100956.00;5070971;28;20055;-69
2022/08/03 06:21:02;;;;;;;8.02;2.10;;;;;;;25.64;53.06;100961.22;5086864;28;20067;-69
2022/08/03 06:23:43;;;;;;;8.88;2.63;;;;;;;25.37;53.94;100963.75;5075790;28;20059;-68
2022/08/03 06:26:23;;;;;;;11.82;3.60;;;;;;;25.34;54.28;100963.72;5081942;28;20048;-69
2022/08/03 06:28:50;;;;;;;11.43;3.38;;;;;;;25.52;53.60;100962.47;5076050;28;20122;-69
2022/08/03 06:31:22;;;;;;;8.13;3.22;;;;;;;25.66;52.74;100958.81;5071540;28;20052;-69
2022/08/03 06:33:50;;;;;;;9.30;2.83;;;;;;;25.51;53.41;100963.69;5066755;28;20051;-69
2022/08/03 06:36:38;;;;;;;8.93;2.70;;;;;;;25.75;54.10;100961.97;5066908;28;20044;-64
2022/08/03 06:39:06;;;;;;;6.78;2.40;;;;;;;26.00;52.71;100959.03;5072385;28;20703;-65
2022/08/03 06:41:34;;;;;;;7.75;2.70;;;;;;;26.04;52.47;100962.66;5074109;28;20617;-64
2022/08/03 06:44:11;;;;;;;12.90;2.58;;;;;;;26.05;52.47;100965.06;5077034;28;20051;-64
2022/08/03 06:46:39;;;;;;;10.25;3.05;;;;;;;26.16;51.42;100960.19;5090677;28;20412;-62
2022/08/03 06:49:07;;;;;;;7.03;2.80;;;;;;;26.23;51.08;100956.50;5073877;28;20047;-66
2022/08/03 06:51:34;;;;;;;8.48;2.80;;;;;;;26.27;51.37;100958.09;5069102;28;20049;-65
2022/08/03 06:54:23;;;;;;;8.05;2.72;;;;;;;26.32;51.44;100957.66;5073116;28;20044;-64
2022/08/03 06:56:51;;;;;;;10.23;2.42;;;;;;;26.06;51.88;100966.69;5073163;28;20067;-65
2022/08/03 06:59:18;;;;;;;9.20;2.70;;;;;;;25.49;53.25;100965.31;5071757;28;20056;-64
2022/08/03 07:02:06;;;;;;;9.40;2.67;;;;;;;26.03;52.13;100967.50;5054472;28;20056;-64
2022/08/03 07:04:33;;;;;;;10.07;2.80;;;;;;;26.10;51.08;100956.16;5051260;28;20492;-63
2022/08/03 07:07:01;;;;;;;20.95;4.57;;;;;;;26.07;51.98;100962.66;5071891;28;20060;-66
2022/08/03 07:09:28;;;;;;;15.15;2.95;;;;;;;26.51;50.84;100965.56;5075761;28;20052;-66
2022/08/03 07:11:55;;;;;;;12.45;3.67;;;;;;;26.59;50.66;100961.47;5071804;28;20056;-64
2022/08/03 07:14:23;;;;;;;10.95;3.13;;;;;;;26.48;50.41;100962.78;5074919;28;20048;-69
2022/08/03 07:16:50;;;;;;;8.65;2.90;;;;;;;26.49;49.94;100964.38;5071549;28;20052;-69
2022/08/03 07:19:17;;;;;;;8.73;3.20;;;;;;;26.52;50.16;100961.53;5072397;28;20063;-68
2022/08/03 07:21:46;;;;;;;8.10;3.20;;;;;;;26.59;50.01;100961.47;5070205;28;20057;-67
2022/08/03 07:24:13;;;;;;;9.60;3.13;;;;;;;26.70;49.20;100961.41;5068921;28;20059;-69
2022/08/03 07:26:40;;;;;;;6.80;2.25;;;;;;;26.39;50.63;100963.25;5070902;28;20063;-70
2022/08/03 07:29:08;;;;;;;9.23;3.13;;;;;;;26.62;49.64;100962.66;5072910;28;20059;-66
2022/08/03 07:31:41;;;;;;;13.95;2.70;;;;;;;26.34;49.95;100958.00;5071078;28;20093;-66
2022/08/03 07:34:08;;;;;;;9.43;3.60;;;;;;;26.57;49.42;100963.91;5075516;28;20047;-66
2022/08/03 07:36:36;;;;;;;11.10;3.00;;;;;;;26.74;49.37;100953.72;5074681;28;20059;-68
2022/08/03 07:39:03;;;;;;;10.38;2.63;;;;;;;26.95;48.79;100955.53;5068290;28;20380;-68
2022/08/03 07:41:44;;;;;;;12.23;3.00;;;;;;;26.80;48.60;100949.19;5072216;28;20472;-69
2022/08/03 07:44:12;;;;;;;16.13;2.83;;;;;;;27.13;48.51;100956.16;5071164;28;20041;-70
2022/08/03 07:46:39;;;;;;;10.05;2.97;;;;;;;27.02;48.18;100961.94;5069491;28;20048;-68
2022/08/03 07:49:07;;;;;;;14.02;3.50;;;;;;;26.98;48.31;100958.31;5069092;28;20064;-67
2022/08/03 07:51:35;;;;;;;15.65;3.08;;;;;;;27.18;48.20;100961.34;5067649;28;20052;-68
2022/08/03 07:54:02;;;;;;;12.60;2.60;;;;;;;27.23;47.25;100953.19;5072749;28;20047;-68
2022/08/03 07:56:30;;;;;;;10.27;2.90;;;;;;;27.25;47.94;100959.22;5069824;28;20063;-68
2022/08/03 07:58:58;;;;;;;10.48;2.47;;;;;;;27.32;48.28;100967.66;5070658;28;20055;-68
2022/08/03 08:01:25;;;;;;;12.15;2.90;;;;;;;27.56;48.47;100963.75;5071616;28;20061;-68
2022/08/03 08:03:53;;;;;;;13.20;2.75;;;;;;;27.66;46.50;100954.34;5069966;28;20048;-68
2022/08/03 08:06:21;;;;;;;9.15;2.50;;;;;;;27.73;45.63;100964.75;5071359;28;20060;-71
2022/08/03 08:08:48;;;;;;;13.32;2.53;;;;;;;27.94;46.16;100960.88;5066222;28;20056;-71
2022/08/03 08:11:15;;;;;;;16.30;2.92;;;;;;;28.28;45.11;100953.09;5072666;28;20388;-72
2022/08/03 08:13:43;;;;;;;8.38;2.55;;;;;;;28.78;43.91;100954.69;5069349;28;20048;-72
2022/08/03 08:16:10;;;;;;;12.15;2.35;;;;;;;28.94;43.35;100950.41;5068670;28;20054;-72
2022/08/03 08:18:38;;;;;;;7.65;2.92;;;;;;;28.83;43.07;100953.41;5070809;28;20064;-72
2022/08/03 08:21:05;;;;;;;9.05;2.53;;;;;;;29.15;42.34;100947.97;5071835;28;20044;-72
2022/08/03 08:23:34;;;;;;;13.43;3.45;;;;;;;29.31;42.37;100948.06;5070451;28;20063;-72
2022/08/03 08:26:10;;;;;;;12.20;3.13;;;;;;;29.28;41.81;100957.47;5073334;28;20053;-72
2022/08/03 08:28:38;;;;;;;7.97;2.90;;;;;;;29.45;41.04;100946.97;5069677;28;20633;-71
2022/08/03 08:31:05;;;;;;;13.18;3.10;;;;;;;29.35;41.06;100948.81;5065327;28;20051;-74
2022/08/03 08:33:34;;;;;;;13.05;3.67;;;;;;;29.44;41.27;100936.88;5069754;28;20583;-74
2022/08/03 08:36:21;;;;;;;13.95;3.30;;;;;;;29.78;40.32;100943.06;5068676;28;20399;-73
2022/08/03 08:38:48;;;;;;;9.80;2.45;;;;;;;29.76;39.80;100937.81;5070031;28;20419;-72
2022/08/03 08:41:16;;;;;;;8.15;2.60;;;;;;;29.88;39.66;100944.09;5071942;28;20072;-68
2022/08/03 08:43:43;;;;;;;10.45;2.63;;;;;;;29.89;39.80;100943.63;5071589;28;20052;-68
2022/08/03 08:46:12;;;;;;;8.68;2.60;;;;;;;29.93;39.58;100937.88;5072620;28;20052;-68
2022/08/03 08:48:54;;;;;;;5.93;2.20;;;;;;;29.77;39.22;100942.28;5073229;28;20052;-68
2022/08/03 08:51:27;;;;;;;8.30;2.17;;;;;;;29.24;40.45;100938.91;5087711;28;20436;-67
2022/08/03 08:54:17;;;;;;;7.20;2.80;;;;;;;29.16;40.48;100940.28;5056494;28;20052;-68
2022/08/03 08:56:45;;;;;;;11.75;2.90;;;;;;;29.35;40.31;100940.28;5071967;28;20055;-68
2022/08/03 08:59:13;;;;;;;12.60;2.58;;;;;;;29.46;39.82;100926.69;5072426;28;20048;-68
2022/08/03 09:01:40;;;;;;;11.82;2.30;;;;;;;29.49;39.56;100927.84;5073280;28;20055;-67
2022/08/03 09:04:08;;;;;;;11.25;2.55;;;;;;;29.51;39.72;100931.06;5022977;28;20051;-67
2022/08/03 09:06:35;;;;;;;9.57;2.80;;;;;;;29.34;40.07;100930.19;5053021;28;20052;-67
2022/08/03 09:09:05;;;;;;;7.40;2.85;;;;;;;29.55;39.55;100923.28;5068711;28;20060;-67
2022/08/03 09:11:34;;;;;;;12.02;2.50;;;;;;;29.47;38.94;100924.63;5071688;28;20053;-67
2022/08/03 09:14:22;;;;;;;5.20;2.47;;;;;;;29.31;39.14;100928.19;5072491;28;20045;-67
2022/08/03 09:17:04;;;;;;;6.65;1.95;;;;;;;29.43;39.04;100919.03;5074405;28;20097;-67
2022/08/03 09:19:32;;;;;;;6.70;2.15;;;;;;;29.64;38.91;100912.13;5053683;28;20045;-67
2022/08/03 09:22:11;;;;;;;9.82;2.35;;;;;;;29.58;38.59;100922.38;5069181;28;20040;-69
2022/08/03 09:24:56;;;;;;;8.35;2.42;;;;;;;29.76;38.57;100920.00;5069175;28;20119;-67
2022/08/03 09:27:45;;;;;;;9.80;2.45;;;;;;;29.80;38.14;100920.72;5053835;28;20059;-67
2022/08/03 09:30:14;;;;;;;9.93;2.38;;;;;;;29.84;38.05;100919.41;5054172;28;20056;-67
2022/08/03 09:33:02;;;;;;;12.32;1.90;;;;;;;29.83;38.74;100917.78;5075038;28;20048;-68
2022/08/03 09:35:30;;;;;;;8.90;2.03;;;;;;;30.02;38.12;100913.31;5054549;28;20047;-68
2022/08/03 09:38:23;;;;;;;8.55;1.98;;;;;;;29.97;37.89;100913.03;5087848;28;20057;-67
2022/08/03 09:40:51;;;;;;;7.88;2.00;;;;;;;29.63;38.33;100919.03;5071606;28;20048;-67
2022/08/03 09:43:26;;;;;;;6.15;2.00;;;;;;;30.03;37.68;100916.94;5069387;28;20053;-67
2022/08/03 09:46:04;;;;;;;5.75;2.10;;;;;;;29.71;38.05;100915.63;5051620;28;20056;-67
2022/08/03 09:48:33;;;;;;;8.13;1.95;;;;;;;29.83;37.66;100912.09;5085523;28;20059;-66
2022/08/03 09:51:02;;;;;;;7.13;1.85;;;;;;;30.13;37.52;100918.75;5070296;28;20048;-68
2022/08/03 09:53:49;;;;;;;8.15;1.60;;;;;;;30.12;37.18;100903.75;5068763;28;20075;-68
2022/08/03 09:56:39;;;;;;;7.82;2.45;;;;;;;30.01;37.33;100897.50;5085433;28;20503;-68
2022/08/03 09:59:06;;;;;;;8.57;2.20;;;;;;;30.11;36.95;100904.19;5069473;28;20055;-68
2022/08/03 10:01:34;;;;;;;8.65;2.30;;;;;;;29.91;37.00;100897.75;5072507;28;20040;-68
2022/08/03 10:04:02;;;;;;;6.40;2.30;;;;;;;29.92;37.14;100896.53;5070650;28;20412;-68
2022/08/03 10:06:31;;;;;;;8.77;2.00;;;;;;;29.99;37.17;100902.03;5068906;28;20336;-68
2022/08/03 10:09:13;;;;;;;6.25;2.15;;;;;;;30.01;36.88;100893.84;5067978;28;20057;-68
2022/08/03 10:11:41;;;;;;;6.28;1.85;;;;;;;29.97;37.53;100887.47;5072663;28;20052;-67
2022/08/03 10:14:17;;;;;;;5.72;2.00;;;;;;;30.12;37.34;100895.22;5079322;28;20052;-68
2022/08/03 10:16:46;;;;;;;9.30;2.33;;;;;;;30.12;37.01;100891.56;5077085;28;20056;-68
2022/08/03 10:19:14;;;;;;;8.50;2.72;;;;;;;30.26;36.76;100880.69;5076740;28;20049;-69
2022/08/03 10:21:48;;;;;;;9.13;2.15;;;;;;;30.40;36.64;100882.38;5078464;28;20044;-68
2022/08/03 10:24:17;;;;;;;13.90;2.97;;;;;;;30.31;36.33;100885.03;5085152;28;20483;-67
2022/08/03 10:26:45;;;;;;;6.45;2.13;;;;;;;30.53;36.38;100878.34;5092935;28;20049;-68
2022/08/03 10:29:21;;;;;;;8.35;2.33;;;;;;;30.65;36.21;100874.78;5077584;28;20048;-67
2022/08/03 10:31:52;;;;;;;6.30;2.15;;;;;;;30.96;35.23;100869.53;5070732;28;20044;-67
2022/08/03 10:34:33;;;;;;;18.17;11.40;;;;;;;29.89;36.22;100881.16;5069931;28;20055;-68
2022/08/03 10:37:04;;;;;;;12.88;2.33;;;;;;;29.94;36.45;100866.41;5040201;28;20048;-67
2022/08/03 10:39:31;;;;;;;5.38;2.10;;;;;;;30.17;36.31;100857.75;5094940;28;20060;-67
2022/08/03 10:41:59;;;;;;;8.60;1.75;;;;;;;30.29;35.81;100857.06;5077559;28;20059;-67
2022/08/03 10:44:32;;;;;;;9.25;2.20;;;;;;;30.33;35.96;100860.63;5078018;28;20052;-67
2022/08/03 10:47:00;;;;;;;7.18;1.85;;;;;;;30.61;35.30;100853.38;5077349;28;20048;-67
2022/08/03 10:49:28;;;;;;;10.68;2.40;;;;;;;30.89;35.07;100847.72;5077234;28;20502;-68
2022/08/03 10:52:03;;;;;;;12.23;2.72;;;;;;;30.78;35.11;100847.22;5070140;28;20059;-63
2022/08/03 10:57:48;;;;;;;8.60;2.20;;;;;;;30.67;34.68;100835.31;5078405;28;20051;-62
2022/08/03 11:00:18;;;;;;;9.23;1.90;;;;;;;30.52;35.14;100844.69;5076392;28;20082;-63
2022/08/03 11:03:09;;;;;;;6.93;1.63;;;;;;;30.54;34.79;100842.19;5077161;28;20514;-69
2022/08/03 11:05:41;;;;;;;8.60;1.58;;;;;;;30.46;34.99;100843.66;5062616;28;20506;-68
2022/08/03 11:08:33;;;;;;;10.52;2.03;;;;;;;30.47;35.07;100834.66;5089314;28;20075;-66
2022/08/03 11:11:16;;;;;;;5.85;1.95;;;;;;;30.56;34.40;100836.88;5070317;28;20064;-66
2022/08/03 11:14:08;;;;;;;9.88;2.15;;;;;;;30.62;34.66;100829.38;5068281;28;20049;-66
2022/08/03 11:17:06;;;;;;;10.77;2.20;;;;;;;30.71;34.44;100826.69;5074230;28;20048;-67
2022/08/03 11:19:45;;;;;;;6.78;1.70;;;;;;;30.90;34.21;100828.63;5060572;28;20761;-66
2022/08/03 11:22:27;;;;;;;7.30;1.55;;;;;;;30.88;33.58;100817.69;5076203;28;20060;-65
2022/08/03 11:24:55;;;;;;;;;;;;;;;30.96;33.88;100820.34;5079979;28;20048;-65
2022/08/03 11:27:25;;;;;;;6.25;1.60;;;;;;;31.11;33.90;100822.31;5081044;28;19921;-66
2022/08/03 11:30:04;;;;;;;6.43;2.05;;;;;;;31.20;34.05;100819.63;5083731;28;20059;-65
2022/08/03 11:32:42;;;;;;;8.90;2.15;;;;;;;31.27;33.65;100813.72;5050598;28;20071;-65
2022/08/03 11:35:17;;;;;;;7.03;2.22;;;;;;;31.23;33.35;100809.38;5084791;28;20048;-64
2022/08/03 11:37:56;;;;;;;7.95;1.92;;;;;;;31.27;33.27;100805.19;5073935;28;20056;-64
2022/08/03 11:40:40;;;;;;;4.80;1.85;;;;;;;31.41;33.09;100796.25;5078094;28;20048;-65
2022/08/03 11:43:29;;;;;;;6.38;1.50;;;;;;;31.31;33.52;100805.88;5083304;28;20052;-66
2022/08/03 11:46:20;;;;;;;6.47;1.67;;;;;;;31.39;32.54;100803.63;5068577;28;20056;-66
2022/08/03 11:49:03;;;;;;;4.07;1.50;;;;;;;31.52;31.96;100801.59;5065485;28;20044;-66
2022/08/03 11:51:37;;;;;;;7.10;1.63;;;;;;;31.36;32.28;100799.66;5091083;28;20063;-66
2022/08/03 11:54:08;;;;;;;4.93;1.67;;;;;;;31.36;32.44;100798.84;5073738;28;20431;-66
2022/08/03 11:56:53;;;;;;;7.80;1.60;;;;;;;31.48;32.06;100801.72;5057643;28;20416;-64
2022/08/03 11:59:31;;;;;;;5.82;2.08;;;;;;;31.78;31.59;100798.28;5069476;28;20079;-66
2022/08/03 12:02:10;;;;;;;10.23;2.00;;;;;;;31.67;31.73;100797.03;5053292;28;20053;-66
2022/08/03 12:04:57;;;;;;;7.65;1.55;;;;;;;31.65;31.77;100791.00;5074047;28;20056;-65